Bb3 — 6YSK7 — position and weather

sailwx.info

Track history (hours):
 
Tides and Currents Weather Stations Pressure Air Temp Water Temp Dewpoint Dewpoint Depression Visibility Wind Speed Wind Dir Waves Ship Positions

Bb3

Last reported at 2017-Nov-19 14:35 UTC. Time now 2017-Dec-13 16:56 UTC.
Position N 26°08' W 080°07'.
Warning: this ship's position is 24 days out of date.

Length 34 m.

Type: Pleasure craft. MMSI: 338432000.

Date/timePositionNaut miles runAvg speedWind from/ knotsBaromVisibWave heightAir tempDewpointWater temp
2017-Nov-19 14:35N 26°08' W 080°07'0 3.2
2017-Nov-19 14:30N 26°08' W 080°07'2 4.8
2017-Nov-19 14:00N 26°06' W 080°07'3 5.7
2017-Nov-19 13:30N 26°06' W 080°04'0 0.5
2017-Nov-19 13:01N 26°06' W 080°04'3 5.8
2017-Nov-19 12:30N 26°06' W 080°07'2 4.3
2017-Nov-19 12:00N 26°08' W 080°06'  
2017-Nov-14 22:37N 26°08' W 080°07'0 0.0
2017-Nov-14 19:55N 26°08' W 080°07'0 0.0
2017-Nov-14 19:13N 26°08' W 080°07'0 0.0
2017-Nov-14 15:01N 26°08' W 080°07'0 0.0
2017-Nov-14 14:49N 26°08' W 080°07'0 0.0
2017-Nov-14 14:19N 26°08' W 080°07'0 0.0
2017-Nov-14 13:31N 26°08' W 080°07'0 0.0
2017-Nov-14 13:22N 26°08' W 080°07'0 0.0
2017-Nov-14 12:49N 26°08' W 080°07'0 0.0
2017-Nov-14 12:22N 26°08' W 080°07'0 0.0
2017-Nov-14 11:37N 26°08' W 080°07'0 0.0
2017-Nov-14 11:19N 26°08' W 080°07'0 0.0
2017-Nov-14 10:52N 26°08' W 080°07'0 0.0
2017-Nov-14 10:25N 26°08' W 080°07'0 0.0
2017-Nov-14 09:19N 26°08' W 080°07'0 0.0
2017-Nov-14 01:42N 26°08' W 080°07'0 0.0
2017-Nov-14 01:19N 26°08' W 080°07'0 0.0
2017-Nov-14 00:49N 26°08' W 080°07'0 0.0
2017-Nov-14 00:19N 26°08' W 080°07'0 0.0
2017-Nov-14 00:01N 26°08' W 080°07'0 0.0
2017-Nov-13 22:18N 26°08' W 080°07'0 0.0
2017-Nov-13 22:00N 26°08' W 080°07'0 0.0
2017-Nov-13 01:06N 26°08' W 080°07'0 0.0
2017-Nov-12 23:54N 26°08' W 080°07'0 0.0
2017-Nov-12 23:24N 26°08' W 080°07'0 0.0
2017-Nov-12 22:54N 26°08' W 080°07'0 0.0
2017-Nov-12 22:30N 26°08' W 080°07'0 0.0
2017-Nov-12 21:45N 26°08' W 080°07'0 0.0
2017-Nov-12 21:30N 26°08' W 080°07'0 0.0
2017-Nov-12 21:00N 26°08' W 080°07'0 0.0
2017-Nov-12 19:18N 26°08' W 080°07'0 0.0
2017-Nov-12 18:48N 26°08' W 080°07'0 0.0
2017-Nov-12 18:18N 26°08' W 080°07'0 0.0
2017-Nov-12 11:54N 26°08' W 080°07'0 0.0
2017-Nov-12 11:06N 26°08' W 080°07'0 0.0
2017-Nov-12 10:54N 26°08' W 080°07'0 0.0
2017-Nov-12 10:12N 26°08' W 080°07'0 0.0
2017-Nov-12 09:36N 26°08' W 080°07'0 0.0
2017-Nov-12 09:24N 26°08' W 080°07'0 0.0
2017-Nov-12 08:54N 26°08' W 080°07'0 0.0
2017-Nov-12 08:24N 26°08' W 080°07'0 0.0
2017-Nov-12 07:24N 26°08' W 080°07'0 0.0
2017-Nov-12 07:00N 26°08' W 080°07'0 0.0
2017-Nov-12 05:00N 26°08' W 080°07'0 0.0
2017-Nov-12 03:30N 26°08' W 080°07'0 0.0
2017-Nov-12 01:48N 26°08' W 080°07'0 0.0
2017-Nov-12 00:06N 26°08' W 080°07'0 0.0
2017-Nov-11 23:48N 26°08' W 080°07'0 0.0
2017-Nov-11 23:18N 26°08' W 080°07'0 0.0
2017-Nov-11 22:24N 26°08' W 080°07'0 0.0
2017-Nov-11 21:54N 26°08' W 080°07'0 0.0
2017-Nov-11 21:24N 26°08' W 080°07'0 0.0
2017-Nov-11 20:36N 26°08' W 080°07'0 0.0
2017-Nov-11 20:24N 26°08' W 080°07'0 0.0
2017-Nov-11 19:36N 26°08' W 080°07'0 0.0
2017-Nov-11 19:24N 26°08' W 080°07'0 0.0
2017-Nov-11 17:42N 26°08' W 080°07'0 0.0
2017-Nov-11 17:12N 26°08' W 080°07'0 0.0
2017-Nov-11 17:00N 26°08' W 080°07'0 0.0
2017-Nov-11 16:24N 26°08' W 080°07'0 0.0
2017-Nov-11 16:00N 26°08' W 080°07'0 0.0
2017-Nov-11 11:06N 26°08' W 080°07'0 0.0
2017-Nov-11 10:48N 26°08' W 080°07'0 0.0
2017-Nov-11 10:00N 26°08' W 080°07'0 0.0
2017-Nov-11 09:30N 26°08' W 080°07'0 0.0
2017-Nov-11 08:48N 26°08' W 080°07'0 0.0
2017-Nov-11 08:18N 26°08' W 080°07'0 0.0
2017-Nov-11 07:06N 26°08' W 080°07'0 0.0
2017-Nov-11 05:06N 26°08' W 080°07'0 0.0
2017-Nov-10 21:48N 26°08' W 080°07'0 0.0
2017-Nov-10 21:18N 26°08' W 080°07'0 0.0
2017-Nov-10 20:00N 26°08' W 080°07'0 0.0
2017-Nov-10 19:30N 26°08' W 080°07'0 0.0
2017-Nov-10 19:00N 26°08' W 080°07'0 0.0
2017-Nov-10 17:36N 26°08' W 080°07'0 0.0
2017-Nov-10 16:06N 26°08' W 080°07'0 0.0
2017-Nov-10 15:36N 26°08' W 080°07'0 0.0
2017-Nov-10 09:00N 26°08' W 080°07'0 0.0
2017-Nov-10 07:48N 26°08' W 080°07'0 0.0
2017-Nov-10 07:30N 26°08' W 080°07'0 0.0
2017-Nov-10 07:00N 26°08' W 080°07'0 0.0
2017-Nov-10 06:30N 26°08' W 080°07'0 0.0
2017-Nov-10 06:00N 26°08' W 080°07'0 0.0
2017-Nov-10 05:30N 26°08' W 080°07'0 0.0
2017-Nov-10 04:48N 26°08' W 080°07'0 0.0
2017-Nov-09 19:00N 26°08' W 080°07'0 0.0
2017-Nov-09 18:30N 26°08' W 080°07'0 0.4
2017-Nov-09 18:00N 26°08' W 080°07'3 5.2
2017-Nov-09 17:30N 26°06' W 080°07'5 9.5
2017-Nov-09 17:00N 26°09' W 080°03'1 2.0
2017-Nov-09 16:30N 26°09' W 080°04'3 7.0
2017-Nov-09 16:01N 26°06' W 080°07'2 4.1
2017-Nov-09 15:28N 26°08' W 080°06'  
Track history (hours):
 
Tides and Currents Weather Stations Pressure Air Temp Water Temp Dewpoint Dewpoint Depression Visibility Wind Speed Wind Dir Waves Ship Positions

Bb3

Last reported at 2017-Nov-19 14:35 UTC. Time now 2017-Dec-13 16:56 UTC.
Position N 26°08' W 080°07'.
Warning: this ship's position is 24 days out of date.

Length 34 m.

Type: Pleasure craft. MMSI: 338432000.

Date/timePositionNaut miles runAvg speedWind from/ knotsBaromVisibWave heightAir tempDewpointWater temp
2017-Nov-19 14:35N 26°08' W 080°07'0 3.2
2017-Nov-19 14:30N 26°08' W 080°07'2 4.8
2017-Nov-19 14:00N 26°06' W 080°07'3 5.7
2017-Nov-19 13:30N 26°06' W 080°04'0 0.5
2017-Nov-19 13:01N 26°06' W 080°04'3 5.8
2017-Nov-19 12:30N 26°06' W 080°07'2 4.3
2017-Nov-19 12:00N 26°08' W 080°06'  
2017-Nov-14 22:37N 26°08' W 080°07'0 0.0
2017-Nov-14 19:55N 26°08' W 080°07'0 0.0
2017-Nov-14 19:13N 26°08' W 080°07'0 0.0
2017-Nov-14 15:01N 26°08' W 080°07'0 0.0
2017-Nov-14 14:49N 26°08' W 080°07'0 0.0
2017-Nov-14 14:19N 26°08' W 080°07'0 0.0
2017-Nov-14 13:31N 26°08' W 080°07'0 0.0
2017-Nov-14 13:22N 26°08' W 080°07'0 0.0
2017-Nov-14 12:49N 26°08' W 080°07'0 0.0
2017-Nov-14 12:22N 26°08' W 080°07'0 0.0
2017-Nov-14 11:37N 26°08' W 080°07'0 0.0
2017-Nov-14 11:19N 26°08' W 080°07'0 0.0
2017-Nov-14 10:52N 26°08' W 080°07'0 0.0
2017-Nov-14 10:25N 26°08' W 080°07'0 0.0
2017-Nov-14 09:19N 26°08' W 080°07'0 0.0
2017-Nov-14 01:42N 26°08' W 080°07'0 0.0
2017-Nov-14 01:19N 26°08' W 080°07'0 0.0
2017-Nov-14 00:49N 26°08' W 080°07'0 0.0
2017-Nov-14 00:19N 26°08' W 080°07'0 0.0
2017-Nov-14 00:01N 26°08' W 080°07'0 0.0
2017-Nov-13 22:18N 26°08' W 080°07'0 0.0
2017-Nov-13 22:00N 26°08' W 080°07'0 0.0
2017-Nov-13 01:06N 26°08' W 080°07'0 0.0
2017-Nov-12 23:54N 26°08' W 080°07'0 0.0
2017-Nov-12 23:24N 26°08' W 080°07'0 0.0
2017-Nov-12 22:54N 26°08' W 080°07'0 0.0
2017-Nov-12 22:30N 26°08' W 080°07'0 0.0
2017-Nov-12 21:45N 26°08' W 080°07'0 0.0
2017-Nov-12 21:30N 26°08' W 080°07'0 0.0
2017-Nov-12 21:00N 26°08' W 080°07'0 0.0
2017-Nov-12 19:18N 26°08' W 080°07'0 0.0
2017-Nov-12 18:48N 26°08' W 080°07'0 0.0
2017-Nov-12 18:18N 26°08' W 080°07'0 0.0
2017-Nov-12 11:54N 26°08' W 080°07'0 0.0
2017-Nov-12 11:06N 26°08' W 080°07'0 0.0
2017-Nov-12 10:54N 26°08' W 080°07'0 0.0
2017-Nov-12 10:12N 26°08' W 080°07'0 0.0
2017-Nov-12 09:36N 26°08' W 080°07'0 0.0
2017-Nov-12 09:24N 26°08' W 080°07'0 0.0
2017-Nov-12 08:54N 26°08' W 080°07'0 0.0
2017-Nov-12 08:24N 26°08' W 080°07'0 0.0
2017-Nov-12 07:24N 26°08' W 080°07'0 0.0
2017-Nov-12 07:00N 26°08' W 080°07'0 0.0
2017-Nov-12 05:00N 26°08' W 080°07'0 0.0
2017-Nov-12 03:30N 26°08' W 080°07'0 0.0
2017-Nov-12 01:48N 26°08' W 080°07'0 0.0
2017-Nov-12 00:06N 26°08' W 080°07'0 0.0
2017-Nov-11 23:48N 26°08' W 080°07'0 0.0
2017-Nov-11 23:18N 26°08' W 080°07'0 0.0
2017-Nov-11 22:24N 26°08' W 080°07'0 0.0
2017-Nov-11 21:54N 26°08' W 080°07'0 0.0
2017-Nov-11 21:24N 26°08' W 080°07'0 0.0
2017-Nov-11 20:36N 26°08' W 080°07'0 0.0
2017-Nov-11 20:24N 26°08' W 080°07'0 0.0
2017-Nov-11 19:36N 26°08' W 080°07'0 0.0
2017-Nov-11 19:24N 26°08' W 080°07'0 0.0
2017-Nov-11 17:42N 26°08' W 080°07'0 0.0
2017-Nov-11 17:12N 26°08' W 080°07'0 0.0
2017-Nov-11 17:00N 26°08' W 080°07'0 0.0
2017-Nov-11 16:24N 26°08' W 080°07'0 0.0
2017-Nov-11 16:00N 26°08' W 080°07'0 0.0
2017-Nov-11 11:06N 26°08' W 080°07'0 0.0
2017-Nov-11 10:48N 26°08' W 080°07'0 0.0
2017-Nov-11 10:00N 26°08' W 080°07'0 0.0
2017-Nov-11 09:30N 26°08' W 080°07'0 0.0
2017-Nov-11 08:48N 26°08' W 080°07'0 0.0
2017-Nov-11 08:18N 26°08' W 080°07'0 0.0
2017-Nov-11 07:06N 26°08' W 080°07'0 0.0
2017-Nov-11 05:06N 26°08' W 080°07'0 0.0
2017-Nov-10 21:48N 26°08' W 080°07'0 0.0
2017-Nov-10 21:18N 26°08' W 080°07'0 0.0
2017-Nov-10 20:00N 26°08' W 080°07'0 0.0
2017-Nov-10 19:30N 26°08' W 080°07'0 0.0
2017-Nov-10 19:00N 26°08' W 080°07'0 0.0
2017-Nov-10 17:36N 26°08' W 080°07'0 0.0
2017-Nov-10 16:06N 26°08' W 080°07'0 0.0
2017-Nov-10 15:36N 26°08' W 080°07'0 0.0
2017-Nov-10 09:00N 26°08' W 080°07'0 0.0
2017-Nov-10 07:48N 26°08' W 080°07'0 0.0
2017-Nov-10 07:30N 26°08' W 080°07'0 0.0
2017-Nov-10 07:00N 26°08' W 080°07'0 0.0
2017-Nov-10 06:30N 26°08' W 080°07'0 0.0
2017-Nov-10 06:00N 26°08' W 080°07'0 0.0
2017-Nov-10 05:30N 26°08' W 080°07'0 0.0
2017-Nov-10 04:48N 26°08' W 080°07'0 0.0
2017-Nov-09 19:00N 26°08' W 080°07'0 0.0
2017-Nov-09 18:30N 26°08' W 080°07'0 0.4
2017-Nov-09 18:00N 26°08' W 080°07'3 5.2
2017-Nov-09 17:30N 26°06' W 080°07'5 9.5
2017-Nov-09 17:00N 26°09' W 080°03'1 2.0
2017-Nov-09 16:30N 26°09' W 080°04'3 7.0
2017-Nov-09 16:01N 26°06' W 080°07'2 4.1
2017-Nov-09 15:28N 26°08' W 080°06'  

Dump ship's entire track history